• Join FlightAware (Why Join?)
  • Login
  • US Flag 
04:14AM EDT


 

Airport Tracker/Info


-or-


 

Live Flight TrackerFlight Track Log ✈ UCA3597 ✈ 30-Apr-2014 ✈ KBGM - KIAD

Flight Track Log - Related Links

Times and Time Zones

All times are in EDT time to prevent confusion due to time zone crossing. See the UCA3597 flight status page for this flight to view local times or setup timezone preferences in your user account.

Time Position Orientation Groundspeed Altitude Reporting Facility
EDT Latitude Longitude Course Direction KTS MPH feet Rate Location/Type
07:16PM 42.1547 -75.9794 212° Southwest 113 130 4,400  Level New York Center
07:17PM 42.1264 -76.0081 217° Southwest 119 137 5,400 1,200 Climbing New York Center
07:18PM 42.0936 -76.0417 217° Southwest 139 160 6,800 1,380 Climbing New York Center
07:19PM 42.0622 -76.2045 217° Southwest  Level FlightAware Approximate
07:19PM 42.0544 -76.0806 216° Southwest 158 182 8,200  Level New York Center
07:20PM 42.0099 -76.2363 212° Southwest  Level FlightAware Approximate
07:20PM 42.0153 -76.1219 218° Southwest 176 203 9,600  Level New York Center
07:21PM 41.9806 -76.1525 213° Southwest 181 208 11,000 1,260 Climbing New York Center
07:22PM 41.9433 -76.1914 218° Southwest 181 208 12,200 1,140 Climbing New York Center
07:23PM 41.8997 -76.2353 217° Southwest 186 214 13,300 1,080 Climbing New York Center
07:24PM 41.8603 -76.2739 216° Southwest 186 214 14,400 960 Climbing New York Center
07:25PM 41.8214 -76.3094 214° Southwest 186 214 15,300 780 Climbing New York Center
07:26PM 41.7797 -76.3506 216° Southwest 186 214 16,000 300 Climbing New York Center
07:27PM 41.7275 -76.4017 216° Southwest 204 235 16,000  Level New York Center
07:28PM 41.6769 -76.4531 217° Southwest 216 249 16,000  Level New York Center
07:29PM 41.6247 -76.5042 216° Southwest 228 262 16,000  Level New York Center
07:30PM 41.5767 -76.5472 214° Southwest 228 262 16,000  Level New York Center
07:31PM 41.5244 -76.5953 215° Southwest 228 262 16,000  Level New York Center
07:32PM 41.4675 -76.6514 216° Southwest 228 262 16,000  Level New York Center
07:33PM 41.4214 -76.6972 217° Southwest 228 262 16,000  Level New York Center
07:34PM 41.3686 -76.7506 217° Southwest 233 268 16,000  Level New York Center
07:35PM 41.3128 -76.7842 204° Southwest 233 268 16,000  Level New York Center
07:36PM 41.2497 -76.7953 188° South 228 262 16,000  Level New York Center
07:37PM 41.1886 -76.8092 190° South 228 262 16,000  Level New York Center
07:38PM 41.1236 -76.8197 187° South 233 268 16,000  Level New York Center
07:39PM 41.0606 -76.8306 187° South 233 268 16,000  Level New York Center
07:40PM 40.9972 -76.8469 191° South 233 268 16,000  Level New York Center
07:41PM 40.9342 -76.8578 187° South 238 274 16,000  Level New York Center
07:42PM 40.8625 -76.8708 188° South 238 274 16,000  Level New York Center
07:43PM 40.8056 -76.8822 189° South 238 274 16,000  Level New York Center
07:44PM 40.7378 -76.9033 193° South 238 274 16,000  Level New York Center
07:45PM 40.6828 -76.9206 193° South 238 274 16,000  Level New York Center
07:46PM 40.6131 -76.9417 193° South 238 274 16,000  Level New York Center
07:47PM 40.5578 -76.9583 193° South 233 268 16,000  Level New York Center
07:48PM 40.4881 -76.9794 193° South 233 268 16,000 -180 Level New York Center
07:49PM 40.4347 -76.9992 196° South 227 261 15,700 -720 Descending New York Center
07:50PM 40.3714 -77.0181 193° South 221 254 14,600 -1,020 Descending New York Center
07:51PM 40.3206 -77.0325 192° South 221 254 13,700 -1,020 Descending New York Center
07:55PM 40.0833 -77.1000 196° South 237 273 10,100 -1,080 Descending Potomac TRACON
07:56PM 40.0333 -77.1167 194° South 232 267 9,100 -300 Descending Potomac TRACON
07:59PM 39.8667 -77.1833 189° South 209 241 9,000 -60 Descending Potomac TRACON
08:00PM 39.8338 -77.1620 196° South  Level FlightAware Approximate
08:00PM 39.8167 -77.2167 207° Southwest 211 243 9,000  Level Potomac TRACON
08:03PM 39.6500 -77.3167 180° South 216 249 7,600 -360 Descending Potomac TRACON
08:06PM 39.5000 -77.4167 207° Southwest 205 236 7,000 -180 Descending Potomac TRACON
08:07PM 39.4500 -77.4500 207° Southwest 206 237 7,000 -660 Level Potomac TRACON
08:08PM 39.4000 -77.4500 180° South 209 241 5,700 -1,020 Descending Potomac TRACON
08:09PM 39.3333 -77.4500 180° South 211 243 5,000 -360 Descending Potomac TRACON
08:10PM 39.2667 -77.4500 180° South 213 245 5,000 -600 Level Potomac TRACON
08:13PM 39.1000 -77.4500 180° South 211 243 2,700 -900 Descending Potomac TRACON
08:14PM 39.0333 -77.4667 191° South 197 227 1,600 -900 Descending Potomac TRACON
08:15PM 39.0000 -77.4667 180° South 130 150 900 -720 Descending Potomac TRACON